Time;durP1;ratioP1;P1;durP2;ratioP2;P2;SDS_P1;SDS_P2;PMS_P1;PMS_P2;Temp;Humidity;BMP_temperature;BMP_pressure;BME280_temperature;BME280_humidity;BME280_pressure;Samples;Min_cycle;Max_cycle;Signal;HPM_P1;HPM_P2
2023/08/16 00:00:46;;;;;;;7.20;6.50;;;;;;;20.65;65.28;100424.41;131018;1254;106571;-73
2023/08/16 00:04:09;;;;;;;7.60;6.60;;;;;;;20.61;65.46;100428.60;131142;1255;107985;-73
2023/08/16 00:07:15;;;;;;;7.60;6.30;;;;;;;20.58;65.41;100432.36;130990;1256;107581;-73
2023/08/16 00:10:21;;;;;;;7.20;6.10;;;;;;;20.55;65.56;100434.81;130942;1256;105914;-75
2023/08/16 00:13:26;;;;;;;6.50;5.70;;;;;;;20.50;65.70;100432.55;131040;1254;106773;-76
2023/08/16 00:16:32;;;;;;;6.80;6.00;;;;;;;20.52;65.79;100435.57;131050;1251;108183;-75
2023/08/16 00:19:38;;;;;;;7.30;6.50;;;;;;;20.52;65.79;100433.90;131026;1256;106897;-75
2023/08/16 00:22:44;;;;;;;6.80;6.10;;;;;;;20.50;65.75;100436.20;131096;1253;105801;-74
2023/08/16 00:25:49;;;;;;;7.50;6.40;;;;;;;20.47;65.90;100437.92;130988;1256;107803;-73
2023/08/16 00:28:55;;;;;;;7.20;6.50;;;;;;;20.44;66.02;100440.31;130982;1257;106454;-75
2023/08/16 00:32:04;;;;;;;6.90;6.20;;;;;;;20.40;66.09;100440.98;130965;1251;106544;-74
2023/08/16 00:35:10;;;;;;;7.70;6.30;;;;;;;20.38;66.19;100436.95;131120;1264;106961;-74
2023/08/16 00:38:16;;;;;;;7.80;6.30;;;;;;;20.36;66.31;100436.13;131024;1257;107690;-74
2023/08/16 00:41:21;;;;;;;7.50;6.60;;;;;;;20.34;66.37;100434.22;130916;1252;107091;-74
2023/08/16 00:44:27;;;;;;;6.90;6.20;;;;;;;20.32;66.49;100436.14;130973;1254;106971;-74
2023/08/16 00:47:34;;;;;;;8.60;6.10;;;;;;;20.29;66.70;100436.92;131018;1257;106076;-74
2023/08/16 00:50:40;;;;;;;8.10;5.80;;;;;;;20.26;66.66;100437.11;130713;1256;216802;-75
2023/08/16 00:53:46;;;;;;;6.80;5.70;;;;;;;20.21;66.72;100437.79;130879;1260;106433;-74
2023/08/16 00:56:53;;;;;;;6.00;5.40;;;;;;;20.20;66.95;100437.13;131002;1257;108680;-74
2023/08/16 00:59:59;;;;;;;7.20;6.00;;;;;;;20.23;67.12;100436.45;130982;1256;107761;-74
2023/08/16 01:03:05;;;;;;;6.80;6.20;;;;;;;20.23;67.04;100432.07;131029;1251;107721;-74
2023/08/16 01:06:11;;;;;;;7.20;6.20;;;;;;;20.23;66.94;100435.98;131037;1256;107810;-73
2023/08/16 01:09:18;;;;;;;7.90;6.60;;;;;;;20.19;67.03;100432.45;131041;1256;107884;-74
2023/08/16 01:12:35;;;;;;;7.50;6.40;;;;;;;20.17;67.16;100430.13;131075;1256;106610;-73
2023/08/16 01:15:45;;;;;;;7.20;6.20;;;;;;;20.16;67.34;100437.64;130894;1256;107087;-74
2023/08/16 01:18:51;;;;;;;7.00;6.30;;;;;;;20.15;67.30;100437.96;130990;1255;107732;-74
2023/08/16 01:22:06;;;;;;;6.90;6.20;;;;;;;20.12;67.37;100434.05;131059;1264;106913;-74
2023/08/16 01:25:20;;;;;;;7.00;6.30;;;;;;;20.08;67.39;100433.16;130910;1256;107646;-74
2023/08/16 01:28:26;;;;;;;7.70;6.30;;;;;;;20.04;67.59;100440.23;131071;1256;106757;-74
2023/08/16 01:31:35;;;;;;;6.40;5.80;;;;;;;20.00;67.63;100440.83;131021;1254;106893;-74
2023/08/16 01:34:40;;;;;;;6.20;5.50;;;;;;;19.97;67.70;100439.04;130958;1251;107788;-75
2023/08/16 01:37:46;;;;;;;6.20;5.60;;;;;;;19.97;67.74;100434.29;131035;1251;107423;-74
2023/08/16 01:40:55;;;;;;;6.60;5.70;;;;;;;19.98;67.93;100428.29;130926;1256;107838;-74
2023/08/16 01:44:03;;;;;;;6.90;6.20;;;;;;;19.99;67.88;100421.29;131066;1251;107830;-74
2023/08/16 01:47:09;;;;;;;7.30;5.60;;;;;;;19.96;67.80;100425.88;130927;1256;108639;-74
2023/08/16 01:50:16;;;;;;;7.80;6.00;;;;;;;19.93;67.97;100426.13;131033;1256;107798;-74
2023/08/16 01:53:21;;;;;;;8.00;6.60;;;;;;;19.90;68.03;100423.30;130982;1256;106356;-74
2023/08/16 01:56:27;;;;;;;7.10;6.40;;;;;;;19.90;68.17;100422.39;130936;1254;106936;-74
2023/08/16 01:59:33;;;;;;;7.00;6.30;;;;;;;19.90;68.21;100412.96;130909;1256;106540;-74
2023/08/16 02:02:39;;;;;;;6.90;6.20;;;;;;;19.93;68.42;100416.80;131003;1260;107900;-75
2023/08/16 02:05:45;;;;;;;7.10;6.40;;;;;;;19.94;68.82;100419.10;130847;1267;106430;-74
2023/08/16 02:08:52;;;;;;;6.20;5.60;;;;;;;19.95;68.43;100417.05;131071;1264;106695;-74
2023/08/16 02:11:57;;;;;;;6.40;5.40;;;;;;;19.92;68.61;100425.22;130965;1256;107784;-74
2023/08/16 02:15:04;;;;;;;6.10;5.50;;;;;;;19.93;68.60;100425.63;130886;1264;108538;-74
2023/08/16 02:18:12;;;;;;;6.50;5.90;;;;;;;19.94;68.63;100420.46;130939;1259;107926;-73
2023/08/16 02:21:18;;;;;;;6.60;6.00;;;;;;;19.96;68.56;100417.62;130854;1257;108729;-74
2023/08/16 02:24:23;;;;;;;7.00;6.30;;;;;;;19.97;68.75;100414.37;131065;1254;108643;-74
2023/08/16 02:27:29;;;;;;;7.10;6.40;;;;;;;20.00;68.67;100409.70;131025;1255;107313;-74
2023/08/16 02:30:35;;;;;;;6.60;6.00;;;;;;;19.95;68.70;100410.67;131057;1257;106623;-73
2023/08/16 02:33:42;;;;;;;7.20;6.20;;;;;;;19.92;68.71;100408.17;130949;1264;107379;-74
2023/08/16 02:36:47;;;;;;;8.30;6.70;;;;;;;19.86;68.81;100408.11;130991;1256;106439;-75
2023/08/16 02:39:53;;;;;;;7.60;6.60;;;;;;;19.80;68.75;100399.73;130950;1256;107518;-78
2023/08/16 02:42:58;;;;;;;7.80;6.60;;;;;;;19.73;68.96;100397.62;131065;1257;106598;-73
2023/08/16 02:46:05;;;;;;;7.10;6.40;;;;;;;19.60;69.16;100398.14;130942;1256;107843;-74
2023/08/16 02:49:10;;;;;;;6.80;6.10;;;;;;;19.46;69.31;100401.22;130985;1257;106233;-74
2023/08/16 02:52:16;;;;;;;8.20;5.80;;;;;;;19.33;69.41;100400.63;131030;1256;107952;-75
2023/08/16 02:55:22;;;;;;;6.60;6.00;;;;;;;19.25;69.58;100405.04;131019;1261;107235;-74
2023/08/16 02:58:27;;;;;;;7.00;6.30;;;;;;;19.17;69.65;100405.69;130957;1257;107697;-74
2023/08/16 03:01:34;;;;;;;7.40;6.50;;;;;;;19.10;69.83;100404.23;130988;1255;107054;-74
2023/08/16 03:04:40;;;;;;;7.60;6.80;;;;;;;19.06;69.94;100405.88;131041;1256;107380;-75
2023/08/16 03:07:45;;;;;;;7.50;6.80;;;;;;;19.02;70.02;100406.59;131050;1257;108148;-75
2023/08/16 03:10:51;;;;;;;7.80;7.10;;;;;;;18.92;70.08;100406.48;130998;1256;108152;-75
2023/08/16 03:13:57;;;;;;;7.60;6.90;;;;;;;18.81;70.37;100409.89;130897;1251;108781;-75
2023/08/16 03:17:02;;;;;;;8.40;7.00;;;;;;;18.74;70.44;100412.66;130957;1264;107469;-74
2023/08/16 03:20:11;;;;;;;6.60;6.00;;;;;;;18.69;70.72;100416.43;130953;1256;107576;-74
2023/08/16 03:23:18;;;;;;;7.70;6.30;;;;;;;18.66;70.91;100415.67;130954;1257;107304;-73
2023/08/16 03:26:24;;;;;;;7.70;6.90;;;;;;;18.64;70.86;100417.66;130988;1256;108841;-74
2023/08/16 03:29:31;;;;;;;8.60;7.10;;;;;;;18.65;71.06;100424.83;130989;1256;106932;-74
2023/08/16 03:32:36;;;;;;;7.60;6.90;;;;;;;18.64;71.20;100430.35;130959;1257;107920;-73
2023/08/16 03:35:42;;;;;;;9.70;7.30;;;;;;;18.64;71.31;100431.42;130980;1264;107651;-74
2023/08/16 03:38:49;;;;;;;7.70;6.90;;;;;;;18.64;71.38;100436.63;131059;1257;107585;-73
2023/08/16 03:41:54;;;;;;;7.50;6.70;;;;;;;18.63;71.49;100440.03;130946;1257;107777;-73
2023/08/16 03:45:00;;;;;;;8.10;6.20;;;;;;;18.62;71.67;100439.98;130970;1256;107670;-75
2023/08/16 03:48:06;;;;;;;7.50;6.40;;;;;;;18.62;71.79;100439.58;130943;1257;108266;-74
2023/08/16 03:51:12;;;;;;;8.20;6.20;;;;;;;18.67;72.04;100443.71;130959;1254;106898;-73
2023/08/16 03:54:17;;;;;;;7.20;6.50;;;;;;;18.76;72.07;100447.24;131002;1257;107667;-74
2023/08/16 03:57:25;;;;;;;7.10;6.40;;;;;;;18.84;72.08;100446.14;130996;1257;107757;-75
2023/08/16 04:00:30;;;;;;;7.00;6.30;;;;;;;18.94;72.13;100438.85;130997;1261;106685;-74
2023/08/16 04:03:37;;;;;;;7.20;6.50;;;;;;;19.04;72.21;100440.04;130993;1256;107465;-74
2023/08/16 04:06:42;;;;;;;6.80;6.10;;;;;;;19.15;72.40;100443.02;130846;1258;108602;-75
2023/08/16 04:09:48;;;;;;;6.70;6.00;;;;;;;19.23;72.27;100442.57;132079;1251;107023;-75
2023/08/16 04:12:53;;;;;;;6.80;6.10;;;;;;;19.35;72.42;100442.22;130819;1256;106231;-74
2023/08/16 04:16:01;;;;;;;7.20;6.50;;;;;;;19.48;72.38;100445.73;131003;1253;106898;-74
2023/08/16 04:19:07;;;;;;;7.20;6.50;;;;;;;19.61;72.25;100445.86;130830;1257;107850;-74
2023/08/16 04:22:12;;;;;;;7.60;6.30;;;;;;;19.70;72.36;100443.16;130952;1254;107101;-75
2023/08/16 04:25:18;;;;;;;7.80;6.80;;;;;;;19.80;72.44;100447.05;131003;1264;106564;-74
2023/08/16 04:28:24;;;;;;;8.70;5.90;;;;;;;19.89;72.38;100446.20;130963;1254;108057;-74
2023/08/16 04:31:30;;;;;;;6.50;5.90;;;;;;;19.99;72.59;100447.04;130840;1266;107551;-74
2023/08/16 04:34:36;;;;;;;7.30;5.90;;;;;;;20.17;72.63;100443.84;131301;1251;108539;-75
2023/08/16 04:37:42;;;;;;;6.90;6.30;;;;;;;20.44;72.62;100448.40;131053;1257;107057;-73
2023/08/16 04:40:51;;;;;;;7.90;6.70;;;;;;;20.77;72.43;100453.82;130976;1264;106978;-74
2023/08/16 04:43:57;;;;;;;8.60;6.60;;;;;;;21.07;72.12;100456.33;131096;1257;107720;-73
2023/08/16 04:47:03;;;;;;;8.00;6.90;;;;;;;21.36;71.91;100454.61;130943;1256;108641;-73
2023/08/16 04:50:09;;;;;;;7.50;6.60;;;;;;;21.62;71.71;100457.45;130967;1257;107772;-72
2023/08/16 04:53:15;;;;;;;7.20;6.50;;;;;;;21.83;71.39;100450.75;131123;1257;109088;-73
2023/08/16 04:56:22;;;;;;;7.20;6.40;;;;;;;22.04;71.25;100441.45;131012;1251;107364;-73
2023/08/16 04:59:29;;;;;;;6.00;5.50;;;;;;;22.27;71.09;100436.35;130993;1265;107257;-74
2023/08/16 05:02:35;;;;;;;6.40;5.60;;;;;;;22.52;70.91;100441.45;130963;1266;106960;-73
2023/08/16 05:05:44;;;;;;;6.90;5.80;;;;;;;22.76;70.69;100438.50;131014;1257;109433;-73
2023/08/16 05:08:50;;;;;;;6.70;6.10;;;;;;;22.98;70.15;100433.81;131068;1257;108188;-75
2023/08/16 05:11:57;;;;;;;6.50;5.90;;;;;;;23.17;69.89;100429.30;131020;1257;106922;-74
2023/08/16 05:15:03;;;;;;;7.30;6.10;;;;;;;23.34;69.79;100426.56;130922;1257;108705;-75
2023/08/16 05:18:11;;;;;;;7.30;6.60;;;;;;;23.46;69.61;100430.64;130904;1257;106540;-74
2023/08/16 05:21:17;;;;;;;8.60;6.20;;;;;;;23.59;69.24;100429.73;130951;1257;107030;-75
2023/08/16 05:24:23;;;;;;;7.80;6.10;;;;;;;23.70;68.96;100426.79;131023;1251;107857;-75
2023/08/16 05:27:29;;;;;;;8.30;5.90;;;;;;;23.81;68.93;100433.36;131000;1251;107661;-74
2023/08/16 05:30:34;;;;;;;7.80;5.90;;;;;;;23.93;68.58;100428.41;131048;1258;107934;-74
2023/08/16 05:33:41;;;;;;;10.10;6.00;;;;;;;24.03;68.55;100430.48;130962;1256;108682;-75
2023/08/16 05:36:53;;;;;;;7.90;5.90;;;;;;;24.12;68.44;100440.61;131045;1251;108523;-74
2023/08/16 05:39:59;;;;;;;7.40;5.90;;;;;;;24.19;68.04;100441.27;131122;1257;108671;-74
2023/08/16 05:43:04;;;;;;;9.70;5.90;;;;;;;24.24;67.89;100442.05;130953;1255;108112;-74
2023/08/16 05:46:10;;;;;;;8.30;6.10;;;;;;;24.28;67.66;100440.22;131043;1254;107759;-74
2023/08/16 05:49:15;;;;;;;7.50;5.70;;;;;;;24.29;67.72;100448.02;130940;1257;105874;-74
2023/08/16 05:52:21;;;;;;;8.40;6.60;;;;;;;24.25;67.47;100442.59;131053;1256;108586;-74
2023/08/16 05:55:27;;;;;;;6.80;6.10;;;;;;;24.22;67.48;100441.86;131011;1257;107467;-76
2023/08/16 05:58:32;;;;;;;7.60;6.20;;;;;;;24.21;67.44;100446.10;131005;1257;107838;-75
2023/08/16 06:01:38;;;;;;;6.60;5.90;;;;;;;24.22;67.59;100450.42;130938;1264;106935;-75
2023/08/16 06:04:44;;;;;;;7.20;5.90;;;;;;;24.25;67.37;100443.55;130976;1251;108397;-77
2023/08/16 06:07:49;;;;;;;7.50;5.90;;;;;;;24.27;67.45;100444.98;131082;1254;107598;-76
2023/08/16 06:10:55;;;;;;;7.30;5.90;;;;;;;24.33;67.40;100449.30;131035;1255;106655;-76
2023/08/16 06:14:00;;;;;;;8.40;6.30;;;;;;;24.37;67.29;100455.67;131001;1257;107573;-76
2023/08/16 06:17:06;;;;;;;9.40;6.30;;;;;;;24.41;67.01;100455.47;131091;1256;107954;-76
2023/08/16 06:20:12;;;;;;;7.90;6.30;;;;;;;24.43;66.68;100456.05;131095;1258;107287;-76
2023/08/16 06:23:18;;;;;;;7.40;6.50;;;;;;;24.46;66.65;100455.09;131051;1258;107361;-76
2023/08/16 06:26:24;;;;;;;9.10;6.30;;;;;;;24.50;66.61;100457.31;130981;1264;106798;-76
2023/08/16 06:29:29;;;;;;;7.70;6.80;;;;;;;24.55;66.53;100456.52;130930;1254;105754;-76
2023/08/16 06:32:35;;;;;;;11.30;6.70;;;;;;;24.62;66.47;100459.82;130991;1254;106673;-76
2023/08/16 06:35:41;;;;;;;8.70;6.40;;;;;;;24.66;66.34;100458.88;130948;1257;107828;-77
2023/08/16 06:38:47;;;;;;;8.80;6.20;;;;;;;24.73;66.29;100456.27;131011;1257;106889;-76
2023/08/16 06:41:52;;;;;;;9.30;6.30;;;;;;;24.79;66.16;100454.05;130931;1255;107652;-76
2023/08/16 06:44:59;;;;;;;7.70;6.40;;;;;;;24.87;66.14;100455.69;130987;1251;107712;-76
2023/08/16 06:48:07;;;;;;;8.60;6.00;;;;;;;24.94;66.04;100460.36;130976;1251;108416;-76
2023/08/16 06:51:13;;;;;;;7.20;6.40;;;;;;;25.02;65.96;100458.17;130954;1257;107194;-78
2023/08/16 06:54:18;;;;;;;8.40;6.20;;;;;;;25.11;65.87;100459.20;131026;1264;106868;-77
2023/08/16 06:57:24;;;;;;;7.00;6.10;;;;;;;25.18;65.79;100458.30;131068;1251;106501;-77
2023/08/16 07:00:30;;;;;;;8.90;6.10;;;;;;;25.26;65.70;100456.73;131018;1251;106926;-76
2023/08/16 07:03:36;;;;;;;9.30;6.00;;;;;;;25.35;65.59;100460.27;131004;1258;107155;-77
2023/08/16 07:06:41;;;;;;;7.70;6.20;;;;;;;25.43;65.36;100460.91;131035;1256;107546;-77
2023/08/16 07:09:47;;;;;;;8.20;6.40;;;;;;;25.52;65.30;100457.34;131056;1255;106972;-76
2023/08/16 07:12:52;;;;;;;7.90;6.60;;;;;;;25.61;65.55;100454.93;131019;1256;107946;-77
2023/08/16 07:15:58;;;;;;;9.40;6.90;;;;;;;25.69;65.10;100451.59;130942;1256;107714;-77
2023/08/16 07:19:04;;;;;;;7.60;6.60;;;;;;;25.76;64.85;100452.48;130959;1254;107751;-77
2023/08/16 07:22:09;;;;;;;8.60;6.80;;;;;;;25.82;64.47;100452.96;130959;1254;107697;-76
2023/08/16 07:25:15;;;;;;;7.40;6.60;;;;;;;25.89;64.66;100452.73;131022;1254;106979;-76
2023/08/16 07:28:21;;;;;;;8.20;6.50;;;;;;;25.97;64.64;100449.23;130987;1256;107762;-76
2023/08/16 07:31:26;;;;;;;10.30;6.70;;;;;;;26.06;64.61;100447.73;130978;1250;107992;-77
2023/08/16 07:34:32;;;;;;;9.00;6.90;;;;;;;26.16;64.64;100450.33;131027;1257;108594;-76
2023/08/16 07:37:38;;;;;;;7.50;6.80;;;;;;;26.26;64.68;100454.51;130934;1251;108130;-78
2023/08/16 07:40:49;;;;;;;7.70;6.90;;;;;;;26.37;64.68;100460.06;130990;1264;107698;-78
2023/08/16 07:43:54;;;;;;;7.10;6.50;;;;;;;26.48;64.64;100457.64;131042;1254;107168;-77
2023/08/16 07:47:00;;;;;;;9.10;6.80;;;;;;;26.56;64.28;100456.44;131011;1254;107717;-77
2023/08/16 07:50:07;;;;;;;7.30;6.60;;;;;;;26.63;63.96;100455.18;130998;1264;107581;-77
2023/08/16 07:53:12;;;;;;;8.00;6.40;;;;;;;26.70;63.90;100453.63;130988;1251;107827;-77
2023/08/16 07:56:18;;;;;;;9.30;6.60;;;;;;;26.78;63.97;100447.86;131027;1254;108140;-76
2023/08/16 07:59:24;;;;;;;8.80;6.50;;;;;;;26.87;63.30;100449.66;130982;1256;107380;-77
2023/08/16 08:02:31;;;;;;;7.10;6.50;;;;;;;26.98;63.02;100449.01;130984;1254;108597;-77
2023/08/16 08:05:37;;;;;;;9.00;6.00;;;;;;;27.09;63.04;100450.61;130968;1251;107788;-77
2023/08/16 08:08:42;;;;;;;8.80;6.90;;;;;;;27.17;63.11;100452.33;131001;1254;106902;-77
2023/08/16 08:11:48;;;;;;;7.40;6.40;;;;;;;27.25;62.91;100455.16;130989;1251;107664;-77
2023/08/16 08:14:53;;;;;;;7.20;6.20;;;;;;;27.32;62.34;100451.69;130964;1256;108645;-77
2023/08/16 08:17:59;;;;;;;8.70;6.30;;;;;;;27.39;62.18;100452.08;130972;1253;106716;-77
2023/08/16 08:21:05;;;;;;;8.90;6.30;;;;;;;27.44;61.77;100451.85;131032;1254;107597;-77
2023/08/16 08:24:10;;;;;;;7.10;6.40;;;;;;;27.46;61.78;100449.02;131080;1256;107097;-76
2023/08/16 08:27:16;;;;;;;8.90;6.80;;;;;;;27.45;61.65;100445.01;130977;1252;108901;-77
2023/08/16 08:30:21;;;;;;;7.10;6.40;;;;;;;27.46;61.65;100447.04;131006;1254;107649;-77
2023/08/16 08:33:27;;;;;;;7.50;6.30;;;;;;;27.53;61.41;100446.92;130940;1257;108601;-77
2023/08/16 08:36:33;;;;;;;6.90;6.10;;;;;;;27.58;60.79;100449.06;130973;1254;107102;-77
2023/08/16 08:39:39;;;;;;;7.40;6.10;;;;;;;27.63;61.02;100450.31;130986;1254;108734;-77
2023/08/16 08:42:47;;;;;;;7.30;6.10;;;;;;;27.65;60.79;100452.13;131028;1251;106914;-78
2023/08/16 08:45:54;;;;;;;6.70;6.10;;;;;;;27.71;60.79;100447.03;130908;1256;107501;-77
2023/08/16 08:49:02;;;;;;;6.40;5.80;;;;;;;27.85;60.54;100445.31;130998;1251;108026;-76
2023/08/16 08:52:08;;;;;;;6.50;5.90;;;;;;;27.93;60.28;100445.56;131009;1256;107706;-77
2023/08/16 08:55:14;;;;;;;7.00;5.90;;;;;;;28.08;60.27;100441.83;130938;1256;107730;-77
2023/08/16 08:58:20;;;;;;;6.90;5.90;;;;;;;28.29;59.57;100438.71;130995;1256;108025;-78
2023/08/16 09:01:28;;;;;;;7.80;5.90;;;;;;;28.50;59.08;100435.30;130943;1254;106690;-77
2023/08/16 09:04:35;;;;;;;7.20;6.40;;;;;;;28.74;58.67;100433.27;131051;1250;107667;-77
2023/08/16 09:07:42;;;;;;;6.90;6.20;;;;;;;28.97;58.16;100440.45;130994;1254;107021;-77
2023/08/16 09:10:49;;;;;;;6.60;5.70;;;;;;;29.19;57.74;100442.39;131050;1256;108623;-77
2023/08/16 09:13:56;;;;;;;10.30;6.00;;;;;;;29.39;57.35;100440.11;131032;1251;108700;-77
2023/08/16 09:17:02;;;;;;;6.50;5.90;;;;;;;29.60;57.25;100436.92;130978;1251;106631;-77
2023/08/16 09:20:11;;;;;;;6.20;5.70;;;;;;;29.78;56.79;100433.19;131020;1254;107567;-78
2023/08/16 09:23:17;;;;;;;6.30;5.70;;;;;;;29.91;56.29;100438.67;131090;1254;107565;-78
2023/08/16 09:26:22;;;;;;;5.60;5.10;;;;;;;30.04;55.97;100438.93;131011;1254;107773;-77
2023/08/16 09:29:30;;;;;;;6.60;5.90;;;;;;;30.13;55.77;100438.26;131022;1254;106752;-77
2023/08/16 09:32:36;;;;;;;7.70;5.90;;;;;;;30.23;53.68;100440.98;131068;1251;106646;-77
2023/08/16 09:35:48;;;;;;;10.20;5.90;;;;;;;30.28;54.11;100434.73;130991;1250;107651;-77
2023/08/16 09:38:53;;;;;;;6.50;5.90;;;;;;;30.36;54.32;100434.90;131164;1254;106118;-77
2023/08/16 09:41:59;;;;;;;6.10;5.30;;;;;;;30.37;52.87;100436.77;130967;1254;107646;-77
2023/08/16 09:45:06;;;;;;;6.20;5.30;;;;;;;30.40;53.76;100435.83;131000;1254;106528;-78
2023/08/16 09:48:12;;;;;;;6.40;5.10;;;;;;;30.39;53.00;100442.17;131014;1254;107711;-77
2023/08/16 09:51:18;;;;;;;5.70;5.00;;;;;;;30.36;52.92;100438.92;131024;1251;107884;-77
2023/08/16 09:54:25;;;;;;;9.90;5.40;;;;;;;30.37;52.62;100441.57;131004;1254;108516;-77
2023/08/16 09:57:32;;;;;;;7.00;5.10;;;;;;;30.41;52.65;100437.14;130994;1255;108643;-77
2023/08/16 10:00:38;;;;;;;6.70;5.00;;;;;;;30.46;52.52;100434.69;130990;1254;106771;-78
2023/08/16 10:03:44;;;;;;;6.20;4.70;;;;;;;30.49;51.76;100434.85;130994;1256;107842;-78
2023/08/16 10:06:50;;;;;;;5.60;5.00;;;;;;;30.52;52.07;100433.08;131031;1254;107087;-77
2023/08/16 10:09:55;;;;;;;5.90;4.70;;;;;;;30.56;51.68;100435.44;131154;1256;106773;-77
2023/08/16 10:13:02;;;;;;;5.50;5.00;;;;;;;30.57;51.60;100439.66;131035;1254;107719;-77
2023/08/16 10:16:11;;;;;;;7.30;5.10;;;;;;;30.60;51.32;100440.53;131058;1256;107584;-77
2023/08/16 10:19:22;;;;;;;7.60;5.20;;;;;;;30.63;51.17;100444.32;130953;1253;108312;-77
2023/08/16 10:22:33;;;;;;;6.10;4.90;;;;;;;30.64;50.55;100445.64;130976;1254;107569;-77
2023/08/16 10:25:46;;;;;;;6.30;5.10;;;;;;;30.68;50.59;100445.40;131040;1251;108174;-79
2023/08/16 10:28:56;;;;;;;5.60;5.00;;;;;;;30.68;50.20;100442.15;130974;1254;107610;-78
2023/08/16 10:32:02;;;;;;;6.50;5.10;;;;;;;30.68;49.84;100437.91;131040;1251;108212;-77
2023/08/16 10:35:10;;;;;;;5.70;5.20;;;;;;;30.68;49.54;100435.27;130947;1255;107744;-78
2023/08/16 10:38:16;;;;;;;5.60;5.00;;;;;;;30.71;49.59;100436.67;131036;1255;106765;-77
2023/08/16 10:41:22;;;;;;;6.70;5.10;;;;;;;30.75;49.06;100440.46;131073;1256;106711;-77
2023/08/16 10:44:28;;;;;;;5.40;4.90;;;;;;;30.76;49.01;100437.08;131035;1254;108347;-77
2023/08/16 10:47:37;;;;;;;6.10;4.90;;;;;;;30.83;48.84;100436.01;131085;1253;107508;-78
2023/08/16 10:50:43;;;;;;;6.40;5.10;;;;;;;30.94;48.38;100430.52;131039;1254;108051;-77
2023/08/16 10:53:49;;;;;;;5.60;5.00;;;;;;;30.99;48.16;100432.35;131090;1254;107654;-78
2023/08/16 10:57:01;;;;;;;5.70;5.00;;;;;;;30.97;47.94;100428.14;131012;1256;108036;-78
2023/08/16 11:00:09;;;;;;;5.40;4.80;;;;;;;30.99;47.86;100427.17;130997;1257;107875;-77
2023/08/16 11:03:21;;;;;;;6.00;5.30;;;;;;;31.10;48.06;100425.95;130951;1254;107616;-78
2023/08/16 11:06:26;;;;;;;5.80;4.80;;;;;;;31.24;47.40;100425.00;131023;1254;108653;-77
2023/08/16 11:09:33;;;;;;;5.80;4.80;;;;;;;31.34;47.78;100427.70;131061;1254;108607;-77
2023/08/16 11:12:39;;;;;;;5.10;4.60;;;;;;;31.43;47.18;100425.30;130941;1251;107944;-77
2023/08/16 11:15:45;;;;;;;5.80;4.70;;;;;;;31.44;46.98;100430.59;131026;1255;107868;-78
2023/08/16 11:18:50;;;;;;;6.40;4.70;;;;;;;31.48;47.03;100427.40;130942;1254;107738;-77
2023/08/16 11:21:58;;;;;;;5.20;4.80;;;;;;;31.51;46.95;100425.50;131039;1254;107648;-77
2023/08/16 11:25:03;;;;;;;5.40;4.80;;;;;;;31.56;46.74;100430.52;130999;1251;107830;-78
2023/08/16 11:28:09;;;;;;;6.80;4.70;;;;;;;31.60;46.67;100436.83;131004;1251;107658;-78
2023/08/16 11:31:14;;;;;;;7.50;4.80;;;;;;;31.68;45.98;100435.49;130939;1251;108403;-77
2023/08/16 11:34:20;;;;;;;5.90;5.30;;;;;;;31.79;46.03;100436.27;131061;1255;108581;-77
2023/08/16 11:37:26;;;;;;;5.80;4.80;;;;;;;31.81;45.74;100435.91;130942;1250;108720;-78
2023/08/16 11:40:32;;;;;;;5.90;5.30;;;;;;;31.85;45.60;100432.41;130994;1264;108641;-77
2023/08/16 11:43:38;;;;;;;7.70;4.90;;;;;;;31.88;45.80;100433.36;130882;1255;106733;-79
2023/08/16 11:46:47;;;;;;;7.30;5.20;;;;;;;31.93;45.88;100432.49;131005;1254;107599;-79
2023/08/16 11:49:53;;;;;;;5.90;5.30;;;;;;;31.97;45.47;100427.36;130957;1256;107175;-78
2023/08/16 11:53:02;;;;;;;5.60;5.10;;;;;;;31.97;45.38;100425.44;131065;1254;106904;-78
2023/08/16 11:56:09;;;;;;;7.90;5.10;;;;;;;31.94;45.28;100423.81;131180;1257;108013;-79
2023/08/16 11:59:24;;;;;;;5.90;4.80;;;;;;;31.92;45.55;100421.52;130937;1256;107771;-78
2023/08/16 12:02:30;;;;;;;6.60;5.20;;;;;;;31.94;45.54;100417.08;130957;1251;107776;-77
2023/08/16 12:05:40;;;;;;;7.10;5.30;;;;;;;31.98;45.49;100417.14;130927;1254;107115;-77
2023/08/16 12:08:53;;;;;;;5.70;5.00;;;;;;;31.98;44.60;100405.66;131077;1254;107376;-79
2023/08/16 12:12:01;;;;;;;7.00;5.10;;;;;;;31.97;44.61;100406.39;130956;1254;108078;-78
2023/08/16 12:15:08;;;;;;;7.50;6.50;;;;;;;31.97;44.36;100402.09;131021;1254;107228;-78
2023/08/16 12:18:14;;;;;;;8.00;5.30;;;;;;;31.98;44.26;100400.42;130957;1256;108416;-78
2023/08/16 12:21:20;;;;;;;6.50;5.10;;;;;;;31.97;44.35;100398.66;131073;1256;107554;-77
2023/08/16 12:24:26;;;;;;;6.20;4.80;;;;;;;32.01;44.15;100404.05;131109;1251;108500;-78
2023/08/16 12:27:31;;;;;;;5.50;4.70;;;;;;;32.04;44.29;100399.99;131010;1256;106924;-78
2023/08/16 12:30:37;;;;;;;5.80;4.90;;;;;;;32.04;43.91;100399.33;130977;1254;107968;-78
2023/08/16 12:33:43;;;;;;;6.30;4.90;;;;;;;32.04;43.45;100402.27;130981;1256;106848;-78
2023/08/16 12:36:49;;;;;;;9.60;5.00;;;;;;;32.02;43.34;100394.34;131022;1250;106432;-78
2023/08/16 12:39:55;;;;;;;5.30;4.80;;;;;;;32.01;42.29;100398.25;131096;1256;107686;-78
2023/08/16 12:43:02;;;;;;;5.50;5.00;;;;;;;32.04;42.92;100392.53;131022;1254;106346;-78
2023/08/16 12:46:08;;;;;;;6.50;5.30;;;;;;;32.10;42.99;100392.48;130960;1253;107319;-77
2023/08/16 12:49:13;;;;;;;5.50;5.10;;;;;;;32.14;42.80;100393.88;130914;1256;144054;-77
2023/08/16 12:52:20;;;;;;;5.70;4.80;;;;;;;32.18;42.65;100390.95;131083;1254;108736;-77
2023/08/16 12:55:26;;;;;;;5.70;5.00;;;;;;;32.21;42.68;100390.46;131011;1258;106957;-78
2023/08/16 12:58:31;;;;;;;5.60;5.00;;;;;;;32.27;42.87;100389.89;130994;1251;107693;-77
2023/08/16 13:01:37;;;;;;;5.70;5.20;;;;;;;32.32;42.81;100389.63;130933;1251;107484;-77
2023/08/16 13:04:43;;;;;;;6.90;5.30;;;;;;;32.34;42.59;100385.16;130984;1255;108662;-77
2023/08/16 13:07:48;;;;;;;5.30;4.80;;;;;;;32.34;42.25;100387.77;131013;1256;107848;-77
2023/08/16 13:10:54;;;;;;;5.90;5.20;;;;;;;32.36;41.90;100381.16;131080;1254;107001;-77
2023/08/16 13:14:00;;;;;;;8.70;7.10;;;;;;;32.35;41.81;100380.40;130962;1251;107879;-77
2023/08/16 13:17:08;;;;;;;6.30;5.70;;;;;;;32.39;42.17;100373.34;131006;1255;106855;-77
2023/08/16 13:20:14;;;;;;;6.20;5.70;;;;;;;32.47;42.32;100373.18;130959;1251;107929;-78
2023/08/16 13:23:19;;;;;;;6.80;5.50;;;;;;;32.53;42.29;100367.30;131025;1255;107062;-78
2023/08/16 13:26:25;;;;;;;8.20;5.60;;;;;;;32.55;41.93;100368.65;131016;1251;107702;-77
2023/08/16 13:29:31;;;;;;;5.60;5.10;;;;;;;32.54;41.69;100364.80;130954;1254;105915;-78
2023/08/16 13:32:36;;;;;;;7.60;5.60;;;;;;;32.57;41.57;100363.89;131004;1255;107774;-78
2023/08/16 13:35:47;;;;;;;5.70;5.20;;;;;;;32.59;41.47;100359.84;130975;1251;106702;-78
2023/08/16 13:38:52;;;;;;;5.70;5.20;;;;;;;32.60;41.31;100360.99;130998;1254;107678;-78
2023/08/16 13:41:58;;;;;;;5.90;5.40;;;;;;;32.60;41.47;100360.44;131129;1254;106716;-78
2023/08/16 13:45:05;;;;;;;6.20;5.60;;;;;;;32.63;41.42;100355.59;130971;1254;107675;-78
2023/08/16 13:48:10;;;;;;;8.20;5.70;;;;;;;32.66;41.39;100357.63;130973;1250;106545;-77
2023/08/16 13:51:16;;;;;;;5.70;5.20;;;;;;;32.70;41.24;100357.08;131014;1256;106649;-78
2023/08/16 13:54:21;;;;;;;6.00;5.50;;;;;;;32.73;41.23;100363.95;130960;1254;107732;-78
2023/08/16 13:57:27;;;;;;;5.50;5.00;;;;;;;32.73;41.02;100361.86;131015;1254;108327;-78
2023/08/16 14:00:33;;;;;;;5.70;5.00;;;;;;;32.74;40.78;100362.83;130860;1259;106714;-78
2023/08/16 14:03:38;;;;;;;5.50;4.80;;;;;;;32.74;40.76;100357.86;130964;1251;107487;-78
2023/08/16 14:06:44;;;;;;;5.90;5.20;;;;;;;32.78;41.03;100362.44;130938;1251;108712;-78